sensor_id;sensor_type;location;lat;lon;timestamp;temperature;humidity
36594;DHT22;22603;47.900;8.146;2023-02-01T00:01:24;1.20;99.90
36594;DHT22;22603;47.900;8.146;2023-02-01T00:04:11;1.20;99.90
36594;DHT22;22603;47.900;8.146;2023-02-01T00:06:58;1.20;99.90
36594;DHT22;22603;47.900;8.146;2023-02-01T00:09:46;1.20;99.90
36594;DHT22;22603;47.900;8.146;2023-02-01T00:12:33;1.10;99.90
36594;DHT22;22603;47.900;8.146;2023-02-01T00:15:20;1.10;99.90
36594;DHT22;22603;47.900;8.146;2023-02-01T00:18:09;1.10;99.90
36594;DHT22;22603;47.900;8.146;2023-02-01T00:20:56;1.10;99.90
36594;DHT22;22603;47.900;8.146;2023-02-01T00:23:43;1.10;99.90
36594;DHT22;22603;47.900;8.146;2023-02-01T00:26:32;1.10;99.90
36594;DHT22;22603;47.900;8.146;2023-02-01T00:29:20;1.10;99.90
36594;DHT22;22603;47.900;8.146;2023-02-01T00:32:06;1.10;99.90
36594;DHT22;22603;47.900;8.146;2023-02-01T00:34:54;1.10;99.90
36594;DHT22;22603;47.900;8.146;2023-02-01T00:37:41;1.20;99.90
36594;DHT22;22603;47.900;8.146;2023-02-01T00:40:27;1.20;99.90
36594;DHT22;22603;47.900;8.146;2023-02-01T00:43:15;1.20;99.90
36594;DHT22;22603;47.900;8.146;2023-02-01T00:46:01;1.20;99.90
36594;DHT22;22603;47.900;8.146;2023-02-01T00:48:48;1.20;99.90
36594;DHT22;22603;47.900;8.146;2023-02-01T00:51:36;1.20;99.90
36594;DHT22;22603;47.900;8.146;2023-02-01T00:54:23;1.20;99.90
36594;DHT22;22603;47.900;8.146;2023-02-01T00:57:10;1.10;99.90
36594;DHT22;22603;47.900;8.146;2023-02-01T00:59:57;1.10;99.90
36594;DHT22;22603;47.900;8.146;2023-02-01T01:02:44;1.10;99.90
36594;DHT22;22603;47.900;8.146;2023-02-01T01:05:30;1.10;99.90
36594;DHT22;22603;47.900;8.146;2023-02-01T01:08:19;1.10;99.90
36594;DHT22;22603;47.900;8.146;2023-02-01T01:11:06;1.20;99.90
36594;DHT22;22603;47.900;8.146;2023-02-01T01:13:55;1.10;99.90
36594;DHT22;22603;47.900;8.146;2023-02-01T01:16:42;1.10;99.90
36594;DHT22;22603;47.900;8.146;2023-02-01T01:19:29;1.00;99.90
36594;DHT22;22603;47.900;8.146;2023-02-01T01:22:15;1.00;99.90
36594;DHT22;22603;47.900;8.146;2023-02-01T01:25:05;0.90;99.90
36594;DHT22;22603;47.900;8.146;2023-02-01T01:27:53;0.90;99.90
36594;DHT22;22603;47.900;8.146;2023-02-01T01:30:39;0.90;99.90
36594;DHT22;22603;47.900;8.146;2023-02-01T01:33:26;0.90;99.90
36594;DHT22;22603;47.900;8.146;2023-02-01T01:36:13;0.90;99.90
36594;DHT22;22603;47.900;8.146;2023-02-01T01:39:00;0.90;99.90
36594;DHT22;22603;47.900;8.146;2023-02-01T01:41:48;0.90;99.90
36594;DHT22;22603;47.900;8.146;2023-02-01T01:44:58;0.90;99.90
36594;DHT22;22603;47.900;8.146;2023-02-01T01:47:49;0.90;99.90
36594;DHT22;22603;47.900;8.146;2023-02-01T01:50:42;0.80;99.90
36594;DHT22;22603;47.900;8.146;2023-02-01T01:53:33;0.90;99.90
36594;DHT22;22603;47.900;8.146;2023-02-01T01:56:25;0.90;99.90
36594;DHT22;22603;47.900;8.146;2023-02-01T01:59:13;0.90;99.90
36594;DHT22;22603;47.900;8.146;2023-02-01T02:01:59;0.90;99.90
36594;DHT22;22603;47.900;8.146;2023-02-01T02:04:47;0.90;99.90
36594;DHT22;22603;47.900;8.146;2023-02-01T02:07:37;0.90;99.90
36594;DHT22;22603;47.900;8.146;2023-02-01T02:10:27;0.90;99.90
36594;DHT22;22603;47.900;8.146;2023-02-01T02:13:31;0.80;99.90
36594;DHT22;22603;47.900;8.146;2023-02-01T02:16:40;0.80;99.90
36594;DHT22;22603;47.900;8.146;2023-02-01T02:23:19;0.80;99.90
36594;DHT22;22603;47.900;8.146;2023-02-01T02:30:09;0.80;99.90
36594;DHT22;22603;47.900;8.146;2023-02-01T02:33:42;0.90;99.90
36594;DHT22;22603;47.900;8.146;2023-02-01T02:36:38;0.90;99.90
36594;DHT22;22603;47.900;8.146;2023-02-01T02:39:36;0.90;99.90
36594;DHT22;22603;47.900;8.146;2023-02-01T02:42:29;0.90;99.90
36594;DHT22;22603;47.900;8.146;2023-02-01T02:45:40;0.90;99.90
36594;DHT22;22603;47.900;8.146;2023-02-01T02:48:53;0.90;99.90
36594;DHT22;22603;47.900;8.146;2023-02-01T02:51:43;0.90;99.90
36594;DHT22;22603;47.900;8.146;2023-02-01T02:54:51;0.80;99.90
36594;DHT22;22603;47.900;8.146;2023-02-01T02:57:42;0.90;99.90
36594;DHT22;22603;47.900;8.146;2023-02-01T03:00:48;0.80;99.90
36594;DHT22;22603;47.900;8.146;2023-02-01T03:03:55;0.80;99.90
36594;DHT22;22603;47.900;8.146;2023-02-01T03:06:57;0.80;99.90
36594;DHT22;22603;47.900;8.146;2023-02-01T03:09:45;0.90;99.90
36594;DHT22;22603;47.900;8.146;2023-02-01T03:12:35;0.90;99.90
36594;DHT22;22603;47.900;8.146;2023-02-01T03:15:49;0.90;99.90
36594;DHT22;22603;47.900;8.146;2023-02-01T03:18:42;0.90;99.90
36594;DHT22;22603;47.900;8.146;2023-02-01T03:21:37;0.90;99.90
36594;DHT22;22603;47.900;8.146;2023-02-01T03:24:27;0.90;99.90
36594;DHT22;22603;47.900;8.146;2023-02-01T03:27:22;0.90;99.90
36594;DHT22;22603;47.900;8.146;2023-02-01T03:30:14;0.90;99.90
36594;DHT22;22603;47.900;8.146;2023-02-01T03:33:06;0.90;99.90
36594;DHT22;22603;47.900;8.146;2023-02-01T03:36:05;1.00;99.90
36594;DHT22;22603;47.900;8.146;2023-02-01T03:39:02;1.10;99.90
36594;DHT22;22603;47.900;8.146;2023-02-01T03:41:53;1.10;99.90
36594;DHT22;22603;47.900;8.146;2023-02-01T03:44:46;1.10;99.90
36594;DHT22;22603;47.900;8.146;2023-02-01T03:47:39;1.10;99.90
36594;DHT22;22603;47.900;8.146;2023-02-01T03:50:28;1.20;99.90
36594;DHT22;22603;47.900;8.146;2023-02-01T03:53:18;1.20;99.90
36594;DHT22;22603;47.900;8.146;2023-02-01T03:56:08;1.20;99.90
36594;DHT22;22603;47.900;8.146;2023-02-01T03:58:56;1.30;99.90
36594;DHT22;22603;47.900;8.146;2023-02-01T04:01:46;1.40;99.90
36594;DHT22;22603;47.900;8.146;2023-02-01T04:04:34;1.40;99.90
36594;DHT22;22603;47.900;8.146;2023-02-01T04:07:21;1.40;99.90
36594;DHT22;22603;47.900;8.146;2023-02-01T04:10:09;1.50;99.90
36594;DHT22;22603;47.900;8.146;2023-02-01T04:12:57;1.50;99.90
36594;DHT22;22603;47.900;8.146;2023-02-01T04:15:44;1.40;99.90
36594;DHT22;22603;47.900;8.146;2023-02-01T04:18:35;1.50;99.90
36594;DHT22;22603;47.900;8.146;2023-02-01T04:21:22;1.40;99.90
36594;DHT22;22603;47.900;8.146;2023-02-01T04:24:08;1.40;99.90
36594;DHT22;22603;47.900;8.146;2023-02-01T04:26:56;1.50;99.90
36594;DHT22;22603;47.900;8.146;2023-02-01T04:29:44;1.50;99.90
36594;DHT22;22603;47.900;8.146;2023-02-01T04:32:31;1.50;99.90
36594;DHT22;22603;47.900;8.146;2023-02-01T04:35:18;1.50;99.90
36594;DHT22;22603;47.900;8.146;2023-02-01T04:38:05;1.50;99.90
36594;DHT22;22603;47.900;8.146;2023-02-01T04:40:53;1.50;99.90
36594;DHT22;22603;47.900;8.146;2023-02-01T04:43:39;1.50;99.90
36594;DHT22;22603;47.900;8.146;2023-02-01T04:46:27;1.50;99.90
36594;DHT22;22603;47.900;8.146;2023-02-01T04:49:15;1.50;99.90
36594;DHT22;22603;47.900;8.146;2023-02-01T04:52:02;1.50;99.90
36594;DHT22;22603;47.900;8.146;2023-02-01T04:54:49;1.50;99.90
36594;DHT22;22603;47.900;8.146;2023-02-01T04:57:36;1.50;99.90
36594;DHT22;22603;47.900;8.146;2023-02-01T05:00:24;1.50;99.90
36594;DHT22;22603;47.900;8.146;2023-02-01T05:03:13;1.50;99.90
36594;DHT22;22603;47.900;8.146;2023-02-01T05:06:00;1.60;99.90
36594;DHT22;22603;47.900;8.146;2023-02-01T05:08:49;1.60;99.90
36594;DHT22;22603;47.900;8.146;2023-02-01T05:11:36;1.60;99.90
36594;DHT22;22603;47.900;8.146;2023-02-01T05:14:41;1.60;99.90
36594;DHT22;22603;47.900;8.146;2023-02-01T05:17:28;1.60;99.90
36594;DHT22;22603;47.900;8.146;2023-02-01T05:20:16;1.60;99.90
36594;DHT22;22603;47.900;8.146;2023-02-01T05:23:03;1.60;99.90
36594;DHT22;22603;47.900;8.146;2023-02-01T05:25:51;1.60;99.90
36594;DHT22;22603;47.900;8.146;2023-02-01T05:28:38;1.60;99.90
36594;DHT22;22603;47.900;8.146;2023-02-01T05:31:25;1.60;99.90
36594;DHT22;22603;47.900;8.146;2023-02-01T05:34:12;1.60;99.90
36594;DHT22;22603;47.900;8.146;2023-02-01T05:37:00;1.60;99.90
36594;DHT22;22603;47.900;8.146;2023-02-01T05:39:48;1.60;99.90
36594;DHT22;22603;47.900;8.146;2023-02-01T05:42:35;1.60;99.90
36594;DHT22;22603;47.900;8.146;2023-02-01T05:45:21;1.60;99.90
36594;DHT22;22603;47.900;8.146;2023-02-01T05:48:08;1.60;99.90
36594;DHT22;22603;47.900;8.146;2023-02-01T05:50:54;1.60;99.90
36594;DHT22;22603;47.900;8.146;2023-02-01T05:53:43;1.60;99.90
36594;DHT22;22603;47.900;8.146;2023-02-01T05:56:30;1.60;99.90
36594;DHT22;22603;47.900;8.146;2023-02-01T05:59:17;1.60;99.90
36594;DHT22;22603;47.900;8.146;2023-02-01T06:02:04;1.60;99.90
36594;DHT22;22603;47.900;8.146;2023-02-01T06:04:51;1.60;99.90
36594;DHT22;22603;47.900;8.146;2023-02-01T06:07:38;1.60;99.90
36594;DHT22;22603;47.900;8.146;2023-02-01T06:10:26;1.60;99.90
36594;DHT22;22603;47.900;8.146;2023-02-01T06:13:13;1.60;99.90
36594;DHT22;22603;47.900;8.146;2023-02-01T06:15:59;1.60;99.90
36594;DHT22;22603;47.900;8.146;2023-02-01T06:18:47;1.60;99.90
36594;DHT22;22603;47.900;8.146;2023-02-01T06:21:34;1.60;99.90
36594;DHT22;22603;47.900;8.146;2023-02-01T06:24:22;1.60;99.90
36594;DHT22;22603;47.900;8.146;2023-02-01T06:27:10;1.60;99.90
36594;DHT22;22603;47.900;8.146;2023-02-01T06:29:59;1.60;99.90
36594;DHT22;22603;47.900;8.146;2023-02-01T06:32:50;1.60;99.90
36594;DHT22;22603;47.900;8.146;2023-02-01T06:35:39;1.60;99.90
36594;DHT22;22603;47.900;8.146;2023-02-01T06:38:27;1.60;99.90
36594;DHT22;22603;47.900;8.146;2023-02-01T06:41:14;1.50;99.90
36594;DHT22;22603;47.900;8.146;2023-02-01T06:44:03;1.60;99.90
36594;DHT22;22603;47.900;8.146;2023-02-01T06:46:50;1.50;99.90
36594;DHT22;22603;47.900;8.146;2023-02-01T06:49:37;1.50;99.90
36594;DHT22;22603;47.900;8.146;2023-02-01T06:52:25;1.50;99.90
36594;DHT22;22603;47.900;8.146;2023-02-01T06:55:12;1.40;99.90
36594;DHT22;22603;47.900;8.146;2023-02-01T06:57:59;1.40;99.90
36594;DHT22;22603;47.900;8.146;2023-02-01T07:00:48;1.40;99.90
36594;DHT22;22603;47.900;8.146;2023-02-01T07:03:35;1.40;99.90
36594;DHT22;22603;47.900;8.146;2023-02-01T07:06:22;1.40;99.90
36594;DHT22;22603;47.900;8.146;2023-02-01T07:09:09;1.40;99.90
36594;DHT22;22603;47.900;8.146;2023-02-01T07:11:57;1.40;99.90
36594;DHT22;22603;47.900;8.146;2023-02-01T07:14:44;1.40;99.90
36594;DHT22;22603;47.900;8.146;2023-02-01T07:17:32;1.50;99.90
36594;DHT22;22603;47.900;8.146;2023-02-01T07:20:19;1.40;99.90
36594;DHT22;22603;47.900;8.146;2023-02-01T07:23:07;1.40;99.90
36594;DHT22;22603;47.900;8.146;2023-02-01T07:25:55;1.40;99.90
36594;DHT22;22603;47.900;8.146;2023-02-01T07:28:42;1.50;99.90
36594;DHT22;22603;47.900;8.146;2023-02-01T07:31:29;1.50;99.90
36594;DHT22;22603;47.900;8.146;2023-02-01T07:34:17;1.60;99.90
36594;DHT22;22603;47.900;8.146;2023-02-01T07:37:05;1.70;99.90
36594;DHT22;22603;47.900;8.146;2023-02-01T07:39:52;1.70;99.90
36594;DHT22;22603;47.900;8.146;2023-02-01T07:42:38;1.80;99.90
36594;DHT22;22603;47.900;8.146;2023-02-01T07:45:25;1.90;99.90
36594;DHT22;22603;47.900;8.146;2023-02-01T07:48:12;2.00;99.90
36594;DHT22;22603;47.900;8.146;2023-02-01T07:51:02;2.00;99.90
36594;DHT22;22603;47.900;8.146;2023-02-01T07:53:49;2.10;99.90
36594;DHT22;22603;47.900;8.146;2023-02-01T07:56:38;2.20;99.90
36594;DHT22;22603;47.900;8.146;2023-02-01T07:59:25;2.30;99.90
36594;DHT22;22603;47.900;8.146;2023-02-01T08:02:12;2.40;99.90
36594;DHT22;22603;47.900;8.146;2023-02-01T08:04:58;2.50;99.90
36594;DHT22;22603;47.900;8.146;2023-02-01T08:07:49;2.40;99.90
36594;DHT22;22603;47.900;8.146;2023-02-01T08:10:36;2.40;99.90
36594;DHT22;22603;47.900;8.146;2023-02-01T08:13:23;2.40;99.90
36594;DHT22;22603;47.900;8.146;2023-02-01T08:16:11;2.40;99.90
36594;DHT22;22603;47.900;8.146;2023-02-01T08:18:58;2.50;99.90
36594;DHT22;22603;47.900;8.146;2023-02-01T08:21:45;2.50;99.90
36594;DHT22;22603;47.900;8.146;2023-02-01T08:24:36;2.60;99.90
36594;DHT22;22603;47.900;8.146;2023-02-01T08:27:25;2.60;99.90
36594;DHT22;22603;47.900;8.146;2023-02-01T08:30:12;2.60;99.90
36594;DHT22;22603;47.900;8.146;2023-02-01T08:33:00;2.50;99.90
36594;DHT22;22603;47.900;8.146;2023-02-01T08:35:47;2.50;99.90
36594;DHT22;22603;47.900;8.146;2023-02-01T08:38:35;2.60;99.90
36594;DHT22;22603;47.900;8.146;2023-02-01T08:41:26;2.70;99.90
36594;DHT22;22603;47.900;8.146;2023-02-01T08:44:13;3.00;99.90
36594;DHT22;22603;47.900;8.146;2023-02-01T08:47:00;3.20;99.90
36594;DHT22;22603;47.900;8.146;2023-02-01T08:49:47;3.20;99.90
36594;DHT22;22603;47.900;8.146;2023-02-01T08:52:34;3.20;99.90
36594;DHT22;22603;47.900;8.146;2023-02-01T08:55:23;3.10;99.90
36594;DHT22;22603;47.900;8.146;2023-02-01T08:58:11;3.20;99.90
36594;DHT22;22603;47.900;8.146;2023-02-01T09:01:03;3.20;99.90
36594;DHT22;22603;47.900;8.146;2023-02-01T09:03:50;3.20;99.90
36594;DHT22;22603;47.900;8.146;2023-02-01T09:06:40;3.00;99.90
36594;DHT22;22603;47.900;8.146;2023-02-01T09:09:27;3.10;99.90
36594;DHT22;22603;47.900;8.146;2023-02-01T09:12:14;3.00;99.90
36594;DHT22;22603;47.900;8.146;2023-02-01T09:15:04;2.90;99.90
36594;DHT22;22603;47.900;8.146;2023-02-01T09:17:52;2.90;99.90
36594;DHT22;22603;47.900;8.146;2023-02-01T09:20:39;2.80;99.90
36594;DHT22;22603;47.900;8.146;2023-02-01T09:23:25;2.70;99.90
36594;DHT22;22603;47.900;8.146;2023-02-01T09:26:12;2.80;99.90
36594;DHT22;22603;47.900;8.146;2023-02-01T09:29:05;2.80;99.90
36594;DHT22;22603;47.900;8.146;2023-02-01T09:31:57;2.90;99.90
36594;DHT22;22603;47.900;8.146;2023-02-01T09:34:49;2.80;99.90
36594;DHT22;22603;47.900;8.146;2023-02-01T09:37:36;2.90;99.90
36594;DHT22;22603;47.900;8.146;2023-02-01T09:40:24;2.90;99.90
36594;DHT22;22603;47.900;8.146;2023-02-01T09:43:20;3.10;99.90
36594;DHT22;22603;47.900;8.146;2023-02-01T09:46:20;3.30;99.90
36594;DHT22;22603;47.900;8.146;2023-02-01T09:49:15;3.60;99.90
36594;DHT22;22603;47.900;8.146;2023-02-01T09:52:04;4.10;99.90
36594;DHT22;22603;47.900;8.146;2023-02-01T09:54:56;4.60;99.90
36594;DHT22;22603;47.900;8.146;2023-02-01T09:57:51;5.00;99.90
36594;DHT22;22603;47.900;8.146;2023-02-01T10:00:40;4.70;99.90
36594;DHT22;22603;47.900;8.146;2023-02-01T10:03:30;4.60;99.90
36594;DHT22;22603;47.900;8.146;2023-02-01T10:06:45;5.20;99.90
36594;DHT22;22603;47.900;8.146;2023-02-01T10:09:44;4.70;99.90
36594;DHT22;22603;47.900;8.146;2023-02-01T10:12:58;4.50;99.90
36594;DHT22;22603;47.900;8.146;2023-02-01T10:15:55;4.30;99.90
36594;DHT22;22603;47.900;8.146;2023-02-01T10:19:16;4.10;99.90
36594;DHT22;22603;47.900;8.146;2023-02-01T10:22:09;3.90;99.90
36594;DHT22;22603;47.900;8.146;2023-02-01T10:25:00;4.10;99.90
36594;DHT22;22603;47.900;8.146;2023-02-01T10:27:51;3.60;99.90
36594;DHT22;22603;47.900;8.146;2023-02-01T10:30:42;3.60;99.90
36594;DHT22;22603;47.900;8.146;2023-02-01T10:33:33;3.60;99.90
36594;DHT22;22603;47.900;8.146;2023-02-01T10:36:23;3.80;99.90
36594;DHT22;22603;47.900;8.146;2023-02-01T10:39:15;3.80;99.90
36594;DHT22;22603;47.900;8.146;2023-02-01T10:42:03;3.80;99.90
36594;DHT22;22603;47.900;8.146;2023-02-01T10:44:50;4.10;99.90
36594;DHT22;22603;47.900;8.146;2023-02-01T10:47:38;4.00;99.90
36594;DHT22;22603;47.900;8.146;2023-02-01T10:50:33;3.90;99.90
36594;DHT22;22603;47.900;8.146;2023-02-01T10:53:24;3.60;99.90
36594;DHT22;22603;47.900;8.146;2023-02-01T10:56:13;3.50;99.90
36594;DHT22;22603;47.900;8.146;2023-02-01T10:59:02;3.50;99.90
36594;DHT22;22603;47.900;8.146;2023-02-01T11:01:50;3.60;99.90
36594;DHT22;22603;47.900;8.146;2023-02-01T11:04:37;3.70;99.90
36594;DHT22;22603;47.900;8.146;2023-02-01T11:07:24;3.60;99.90
36594;DHT22;22603;47.900;8.146;2023-02-01T11:10:36;3.40;99.90
36594;DHT22;22603;47.900;8.146;2023-02-01T11:13:28;3.40;99.90
36594;DHT22;22603;47.900;8.146;2023-02-01T11:16:16;3.40;99.90
36594;DHT22;22603;47.900;8.146;2023-02-01T11:19:05;3.50;99.90
36594;DHT22;22603;47.900;8.146;2023-02-01T11:21:54;3.60;99.90
36594;DHT22;22603;47.900;8.146;2023-02-01T11:24:44;3.60;99.90
36594;DHT22;22603;47.900;8.146;2023-02-01T11:27:34;3.50;99.90
36594;DHT22;22603;47.900;8.146;2023-02-01T11:30:37;3.50;99.90
36594;DHT22;22603;47.900;8.146;2023-02-01T11:33:29;3.40;99.90
36594;DHT22;22603;47.900;8.146;2023-02-01T11:36:22;3.30;99.90
36594;DHT22;22603;47.900;8.146;2023-02-01T11:39:21;3.20;99.90
36594;DHT22;22603;47.900;8.146;2023-02-01T11:42:14;3.30;99.90
36594;DHT22;22603;47.900;8.146;2023-02-01T11:45:18;3.50;99.90
36594;DHT22;22603;47.900;8.146;2023-02-01T11:48:09;3.80;99.90
36594;DHT22;22603;47.900;8.146;2023-02-01T11:51:14;3.80;99.90
36594;DHT22;22603;47.900;8.146;2023-02-01T11:54:17;3.70;99.90
36594;DHT22;22603;47.900;8.146;2023-02-01T11:57:18;3.80;99.90
36594;DHT22;22603;47.900;8.146;2023-02-01T12:06:48;3.20;99.90
36594;DHT22;22603;47.900;8.146;2023-02-01T12:09:49;3.30;99.90
36594;DHT22;22603;47.900;8.146;2023-02-01T12:12:47;3.30;99.90
36594;DHT22;22603;47.900;8.146;2023-02-01T12:15:56;3.30;99.90
36594;DHT22;22603;47.900;8.146;2023-02-01T12:22:19;3.00;99.90
36594;DHT22;22603;47.900;8.146;2023-02-01T12:25:24;3.10;99.90
36594;DHT22;22603;47.900;8.146;2023-02-01T12:28:32;3.20;99.90
36594;DHT22;22603;47.900;8.146;2023-02-01T12:31:40;3.10;99.90
36594;DHT22;22603;47.900;8.146;2023-02-01T12:34:44;3.30;99.90
36594;DHT22;22603;47.900;8.146;2023-02-01T12:37:47;3.30;99.90
36594;DHT22;22603;47.900;8.146;2023-02-01T12:40:51;3.30;99.90
36594;DHT22;22603;47.900;8.146;2023-02-01T12:43:44;3.50;99.90
36594;DHT22;22603;47.900;8.146;2023-02-01T12:46:38;3.80;99.90
36594;DHT22;22603;47.900;8.146;2023-02-01T12:49:33;4.00;99.90
36594;DHT22;22603;47.900;8.146;2023-02-01T12:52:27;3.60;99.90
36594;DHT22;22603;47.900;8.146;2023-02-01T12:55:19;3.80;99.90
36594;DHT22;22603;47.900;8.146;2023-02-01T12:58:13;3.70;99.90
36594;DHT22;22603;47.900;8.146;2023-02-01T13:01:05;3.70;99.90
36594;DHT22;22603;47.900;8.146;2023-02-01T13:03:59;3.50;99.90
36594;DHT22;22603;47.900;8.146;2023-02-01T13:06:54;3.50;99.90
36594;DHT22;22603;47.900;8.146;2023-02-01T13:09:49;3.50;99.90
36594;DHT22;22603;47.900;8.146;2023-02-01T13:12:43;3.40;99.90
36594;DHT22;22603;47.900;8.146;2023-02-01T13:15:36;3.50;99.90
36594;DHT22;22603;47.900;8.146;2023-02-01T13:18:32;3.40;99.90
36594;DHT22;22603;47.900;8.146;2023-02-01T13:21:25;3.20;99.90
36594;DHT22;22603;47.900;8.146;2023-02-01T13:24:24;3.10;99.90
36594;DHT22;22603;47.900;8.146;2023-02-01T13:27:14;3.00;99.90
36594;DHT22;22603;47.900;8.146;2023-02-01T13:30:05;2.80;99.90
36594;DHT22;22603;47.900;8.146;2023-02-01T13:33:08;3.00;99.90
36594;DHT22;22603;47.900;8.146;2023-02-01T13:36:37;3.00;99.90
36594;DHT22;22603;47.900;8.146;2023-02-01T13:39:43;3.00;99.90
36594;DHT22;22603;47.900;8.146;2023-02-01T13:42:37;3.10;99.90
36594;DHT22;22603;47.900;8.146;2023-02-01T13:45:31;3.10;99.90
36594;DHT22;22603;47.900;8.146;2023-02-01T13:48:22;3.00;99.90
36594;DHT22;22603;47.900;8.146;2023-02-01T13:51:12;2.70;99.90
36594;DHT22;22603;47.900;8.146;2023-02-01T13:54:01;2.60;99.90
36594;DHT22;22603;47.900;8.146;2023-02-01T13:56:48;2.60;99.90
36594;DHT22;22603;47.900;8.146;2023-02-01T13:59:50;2.40;99.90
36594;DHT22;22603;47.900;8.146;2023-02-01T14:02:49;2.50;99.90
36594;DHT22;22603;47.900;8.146;2023-02-01T14:05:57;2.60;99.90
36594;DHT22;22603;47.900;8.146;2023-02-01T14:09:12;2.50;99.90
36594;DHT22;22603;47.900;8.146;2023-02-01T14:12:45;2.60;99.90
36594;DHT22;22603;47.900;8.146;2023-02-01T14:15:32;2.60;99.90
36594;DHT22;22603;47.900;8.146;2023-02-01T14:18:57;2.40;99.90
36594;DHT22;22603;47.900;8.146;2023-02-01T14:21:49;2.40;99.90
36594;DHT22;22603;47.900;8.146;2023-02-01T14:24:49;2.20;99.90
36594;DHT22;22603;47.900;8.146;2023-02-01T14:27:38;2.20;99.90
36594;DHT22;22603;47.900;8.146;2023-02-01T14:30:27;2.30;99.90
36594;DHT22;22603;47.900;8.146;2023-02-01T14:33:20;2.30;99.90
36594;DHT22;22603;47.900;8.146;2023-02-01T14:36:09;2.20;99.90
36594;DHT22;22603;47.900;8.146;2023-02-01T14:38:58;2.30;99.90
36594;DHT22;22603;47.900;8.146;2023-02-01T14:41:46;2.30;99.90
36594;DHT22;22603;47.900;8.146;2023-02-01T14:44:35;2.30;99.90
36594;DHT22;22603;47.900;8.146;2023-02-01T14:47:34;2.30;99.90
36594;DHT22;22603;47.900;8.146;2023-02-01T14:50:32;2.20;99.90
36594;DHT22;22603;47.900;8.146;2023-02-01T14:53:27;2.10;99.90
36594;DHT22;22603;47.900;8.146;2023-02-01T14:56:17;2.10;99.90
36594;DHT22;22603;47.900;8.146;2023-02-01T14:59:09;2.00;99.90
36594;DHT22;22603;47.900;8.146;2023-02-01T15:02:01;1.90;99.90
36594;DHT22;22603;47.900;8.146;2023-02-01T15:04:54;1.90;99.90
36594;DHT22;22603;47.900;8.146;2023-02-01T15:07:43;1.80;99.90
36594;DHT22;22603;47.900;8.146;2023-02-01T15:10:32;1.70;99.90
36594;DHT22;22603;47.900;8.146;2023-02-01T15:13:22;1.70;99.90
36594;DHT22;22603;47.900;8.146;2023-02-01T15:16:11;1.70;99.90
36594;DHT22;22603;47.900;8.146;2023-02-01T15:19:10;1.70;99.90
36594;DHT22;22603;47.900;8.146;2023-02-01T15:21:59;1.70;99.90
36594;DHT22;22603;47.900;8.146;2023-02-01T15:24:52;1.60;99.90
36594;DHT22;22603;47.900;8.146;2023-02-01T15:27:40;1.70;99.90
36594;DHT22;22603;47.900;8.146;2023-02-01T15:30:30;1.70;99.90
36594;DHT22;22603;47.900;8.146;2023-02-01T15:33:18;1.70;99.90
36594;DHT22;22603;47.900;8.146;2023-02-01T15:36:10;1.60;99.90
36594;DHT22;22603;47.900;8.146;2023-02-01T15:39:20;1.60;99.90
36594;DHT22;22603;47.900;8.146;2023-02-01T15:42:13;1.70;99.90
36594;DHT22;22603;47.900;8.146;2023-02-01T15:45:16;1.70;99.90
36594;DHT22;22603;47.900;8.146;2023-02-01T15:48:03;1.60;99.90
36594;DHT22;22603;47.900;8.146;2023-02-01T15:50:51;1.70;99.90
36594;DHT22;22603;47.900;8.146;2023-02-01T15:53:48;1.60;99.90
36594;DHT22;22603;47.900;8.146;2023-02-01T15:56:38;1.70;99.90
36594;DHT22;22603;47.900;8.146;2023-02-01T15:59:30;1.70;99.90
36594;DHT22;22603;47.900;8.146;2023-02-01T16:02:26;1.70;99.90
36594;DHT22;22603;47.900;8.146;2023-02-01T16:05:29;1.70;99.90
36594;DHT22;22603;47.900;8.146;2023-02-01T16:08:22;1.70;99.90
36594;DHT22;22603;47.900;8.146;2023-02-01T16:11:25;1.70;99.90
36594;DHT22;22603;47.900;8.146;2023-02-01T16:14:15;1.70;99.90
36594;DHT22;22603;47.900;8.146;2023-02-01T16:17:02;1.70;99.90
36594;DHT22;22603;47.900;8.146;2023-02-01T16:19:49;1.70;99.90
36594;DHT22;22603;47.900;8.146;2023-02-01T16:22:36;1.70;99.90
36594;DHT22;22603;47.900;8.146;2023-02-01T16:25:23;1.70;99.90
36594;DHT22;22603;47.900;8.146;2023-02-01T16:28:11;1.70;99.90
36594;DHT22;22603;47.900;8.146;2023-02-01T16:31:00;1.60;99.90
36594;DHT22;22603;47.900;8.146;2023-02-01T16:33:49;1.60;99.90
36594;DHT22;22603;47.900;8.146;2023-02-01T16:36:36;1.70;99.90
36594;DHT22;22603;47.900;8.146;2023-02-01T16:39:26;1.70;99.90
36594;DHT22;22603;47.900;8.146;2023-02-01T16:42:14;1.60;99.90
36594;DHT22;22603;47.900;8.146;2023-02-01T16:45:02;1.60;99.90
36594;DHT22;22603;47.900;8.146;2023-02-01T16:47:54;1.60;99.90
36594;DHT22;22603;47.900;8.146;2023-02-01T16:50:48;1.60;99.90
36594;DHT22;22603;47.900;8.146;2023-02-01T16:53:36;1.60;99.90
36594;DHT22;22603;47.900;8.146;2023-02-01T16:56:40;1.60;99.90
36594;DHT22;22603;47.900;8.146;2023-02-01T16:59:28;1.60;99.90
36594;DHT22;22603;47.900;8.146;2023-02-01T17:02:18;1.50;99.90
36594;DHT22;22603;47.900;8.146;2023-02-01T17:05:08;1.60;99.90
36594;DHT22;22603;47.900;8.146;2023-02-01T17:08:05;1.50;99.90
36594;DHT22;22603;47.900;8.146;2023-02-01T17:10:52;1.50;99.90
36594;DHT22;22603;47.900;8.146;2023-02-01T17:13:40;1.60;99.90
36594;DHT22;22603;47.900;8.146;2023-02-01T17:16:29;1.60;99.90
36594;DHT22;22603;47.900;8.146;2023-02-01T17:19:19;1.60;99.90
36594;DHT22;22603;47.900;8.146;2023-02-01T17:22:10;1.60;99.90
36594;DHT22;22603;47.900;8.146;2023-02-01T17:24:59;1.60;99.90
36594;DHT22;22603;47.900;8.146;2023-02-01T17:27:46;1.60;99.90
36594;DHT22;22603;47.900;8.146;2023-02-01T17:30:33;1.70;99.90
36594;DHT22;22603;47.900;8.146;2023-02-01T17:33:23;1.70;99.90
36594;DHT22;22603;47.900;8.146;2023-02-01T17:36:16;1.70;99.90
36594;DHT22;22603;47.900;8.146;2023-02-01T17:39:05;1.70;99.90
36594;DHT22;22603;47.900;8.146;2023-02-01T17:41:52;1.70;99.90
36594;DHT22;22603;47.900;8.146;2023-02-01T17:44:39;1.80;99.90
36594;DHT22;22603;47.900;8.146;2023-02-01T17:47:26;1.70;99.90
36594;DHT22;22603;47.900;8.146;2023-02-01T17:50:13;1.80;99.90
36594;DHT22;22603;47.900;8.146;2023-02-01T17:53:00;1.80;99.90
36594;DHT22;22603;47.900;8.146;2023-02-01T17:55:49;1.80;99.90
36594;DHT22;22603;47.900;8.146;2023-02-01T17:58:36;1.80;99.90
36594;DHT22;22603;47.900;8.146;2023-02-01T18:01:23;1.80;99.90
36594;DHT22;22603;47.900;8.146;2023-02-01T18:04:12;1.80;99.90
36594;DHT22;22603;47.900;8.146;2023-02-01T18:07:00;1.80;99.90
36594;DHT22;22603;47.900;8.146;2023-02-01T18:09:47;1.80;99.90
36594;DHT22;22603;47.900;8.146;2023-02-01T18:12:36;1.80;99.90
36594;DHT22;22603;47.900;8.146;2023-02-01T18:15:24;1.80;99.90
36594;DHT22;22603;47.900;8.146;2023-02-01T18:18:12;1.80;99.90
36594;DHT22;22603;47.900;8.146;2023-02-01T18:20:59;1.70;99.90
36594;DHT22;22603;47.900;8.146;2023-02-01T18:23:47;1.70;99.90
36594;DHT22;22603;47.900;8.146;2023-02-01T18:26:34;1.70;99.90
36594;DHT22;22603;47.900;8.146;2023-02-01T18:29:22;1.70;99.90
36594;DHT22;22603;47.900;8.146;2023-02-01T18:32:12;1.70;99.90
36594;DHT22;22603;47.900;8.146;2023-02-01T18:35:00;1.70;99.90
36594;DHT22;22603;47.900;8.146;2023-02-01T18:37:47;1.70;99.90